Time;durP1;ratioP1;P1;durP2;ratioP2;P2;SDS_P1;SDS_P2;PMS_P1;PMS_P2;Temp;Humidity;BMP_temperature;BMP_pressure;BME280_temperature;BME280_humidity;BME280_pressure;Samples;Min_cycle;Max_cycle;Signal;HPM_P1;HPM_P2
2022/02/12 10:29:15;;;;;;;6.35;2.70;;;18.70;70.90;;;;;;5109219;27;20383;-61
2022/02/12 10:31:44;;;;;;;5.15;2.35;;;19.00;70.70;;;;;;5084174;28;20127;-61
2022/02/12 10:34:10;;;;;;;5.20;2.50;;;19.10;70.90;;;;;;5077702;28;20046;-62
2022/02/12 10:36:36;;;;;;;5.18;2.08;;;19.10;71.00;;;;;;5077488;28;20120;-61
2022/02/12 10:39:02;;;;;;;7.50;2.00;;;19.20;70.90;;;;;;5068933;28;20044;-58
2022/02/12 10:41:31;;;;;;;4.25;2.00;;;19.20;70.60;;;;;;5068666;28;20606;-57
2022/02/12 10:43:58;;;;;;;4.07;2.08;;;19.20;70.30;;;;;;5068861;28;20469;-59
2022/02/12 10:46:24;;;;;;;3.03;1.80;;;19.20;70.40;;;;;;5069015;28;20041;-59
2022/02/12 10:48:51;;;;;;;5.40;2.28;;;19.20;70.20;;;;;;5068885;28;20044;-58
2022/02/12 10:51:17;;;;;;;6.40;2.15;;;19.20;69.90;;;;;;5068511;28;20028;-59
2022/02/12 10:54:17;;;;;;;4.20;1.75;;;19.20;69.50;;;;;;5068594;28;20513;-57
2022/02/12 10:56:47;;;;;;;4.45;1.92;;;19.30;68.50;;;;;;5068862;28;20116;-58
2022/02/12 10:59:15;;;;;;;6.90;2.30;;;19.20;69.30;;;;;;5068758;28;20033;-56
2022/02/12 11:01:40;;;;;;;4.30;2.08;;;19.20;69.20;;;;;;5068250;28;20076;-55
2022/02/12 11:04:07;;;;;;;6.50;2.22;;;19.20;69.10;;;;;;5068435;28;20064;-56
2022/02/12 11:06:35;;;;;;;5.72;2.33;;;19.20;68.90;;;;;;5068662;28;20041;-56
2022/02/12 11:09:01;;;;;;;5.72;2.10;;;19.20;68.90;;;;;;5068972;28;20036;-57
2022/02/12 11:11:27;;;;;;;3.95;1.90;;;19.20;68.90;;;;;;5082422;28;20157;-57
2022/02/12 11:13:53;;;;;;;7.57;1.92;;;19.20;68.80;;;;;;5088664;28;20036;-58
2022/02/12 11:16:18;;;;;;;9.10;1.88;;;19.20;68.70;;;;;;5088514;28;20072;-57
2022/02/12 11:18:45;;;;;;;7.22;1.63;;;19.20;68.60;;;;;;5081800;28;20088;-59
2022/02/12 11:21:10;;;;;;;4.75;1.75;;;19.20;68.60;;;;;;5067998;28;20045;-57
2022/02/12 11:23:36;;;;;;;5.13;1.73;;;19.20;68.60;;;;;;5068088;28;20098;-54
2022/02/12 11:26:01;;;;;;;5.05;1.73;;;19.20;68.50;;;;;;5068087;28;20079;-55
2022/02/12 11:28:32;;;;;;;4.47;1.60;;;19.20;68.50;;;;;;5067928;28;20120;-58
2022/02/12 11:31:19;;;;;;;3.95;1.70;;;19.20;68.40;;;;;;5067603;28;20085;-57
2022/02/12 11:34:03;;;;;;;2.53;1.60;;;19.20;67.70;;;;;;5070677;28;20052;-58
2022/02/12 11:36:30;;;;;;;4.45;1.52;;;19.20;67.90;;;;;;5067504;28;20075;-57
2022/02/12 11:39:13;;;;;;;3.63;1.92;;;19.10;68.30;;;;;;5063613;28;20075;-56
2022/02/12 11:41:46;;;;;;;4.10;1.57;;;19.20;67.80;;;;;;5054323;28;20033;-57
2022/02/12 11:44:47;;;;;;;4.53;1.65;;;19.20;68.10;;;;;;5054521;28;20575;-58
2022/02/12 11:47:14;;;;;;;4.97;1.90;;;19.10;67.70;;;;;;5053279;28;20099;-60
2022/02/12 11:49:40;;;;;;;5.38;1.58;;;19.20;68.40;;;;;;5054539;28;20408;-50
2022/02/12 11:52:15;;;;;;;4.00;1.65;;;19.10;68.30;;;;;;5054058;28;20040;-56
2022/02/12 11:54:43;;;;;;;8.35;1.92;;;19.10;68.20;;;;;;5054246;28;20513;-51
2022/02/12 12:02:40;;;;;;;10.18;3.72;;;16.10;44.50;;;;;;5130037;27;20299;-76
2022/02/12 12:05:25;;;;;;;12.63;3.80;;;13.80;49.20;;;;;;5130766;27;20515;-75
2022/02/12 12:08:11;;;;;;;11.40;4.10;;;11.60;52.50;;;;;;5123519;28;20122;-75
2022/02/12 12:11:01;;;;;;;13.80;4.15;;;10.20;57.40;;;;;;5125804;27;20039;-76
2022/02/12 12:13:26;;;;;;;7.10;3.75;;;8.70;61.70;;;;;;5116875;28;20126;-74
2022/02/12 12:15:57;;;;;;;11.00;4.07;;;8.30;63.50;;;;;;5108243;28;20181;-73
2022/02/12 12:18:27;;;;;;;8.30;3.42;;;7.70;65.30;;;;;;5108121;28;20058;-74
2022/02/12 12:20:53;;;;;;;12.75;4.43;;;7.30;66.70;;;;;;5107726;28;20040;-73
2022/02/12 12:23:20;;;;;;;9.48;4.22;;;7.10;67.70;;;;;;5109445;28;20377;-74
2022/02/12 12:25:55;;;;;;;13.80;4.65;;;6.90;68.00;;;;;;5108957;28;20051;-75
2022/02/12 12:28:31;;;;;;;9.70;4.25;;;6.70;69.30;;;;;;5115932;28;20035;-74
2022/02/12 12:31:02;;;;;;;12.13;4.75;;;6.60;71.20;;;;;;5107494;28;20039;-76
2022/02/12 12:33:27;;;;;;;11.23;3.85;;;6.70;71.40;;;;;;5108081;28;20047;-75
2022/02/12 12:35:54;;;;;;;10.35;3.97;;;7.00;69.80;;;;;;5107667;28;20043;-75
2022/02/12 12:38:33;;;;;;;10.70;4.45;;;7.10;69.90;;;;;;5107959;28;20044;-76
2022/02/12 12:40:59;;;;;;;9.57;4.60;;;7.00;69.80;;;;;;5107624;28;20054;-75
2022/02/12 12:43:26;;;;;;;11.15;4.47;;;7.10;71.20;;;;;;5107595;28;20119;-75
2022/02/12 12:45:51;;;;;;;11.50;5.10;;;7.20;69.90;;;;;;5109112;28;20078;-75
2022/02/12 12:48:17;;;;;;;8.93;4.13;;;7.30;69.30;;;;;;5107637;28;20071;-75
2022/02/12 12:50:43;;;;;;;13.43;4.18;;;7.30;68.90;;;;;;5109332;28;20044;-77
2022/02/12 12:53:11;;;;;;;11.13;4.03;;;7.40;69.20;;;;;;5090957;28;20040;-76
2022/02/12 12:55:38;;;;;;;13.32;4.68;;;7.60;69.90;;;;;;5107420;28;20081;-76
2022/02/12 12:58:14;;;;;;;12.05;4.00;;;7.20;69.50;;;;;;5108696;28;20046;-76
2022/02/12 13:00:40;;;;;;;13.35;4.70;;;7.00;69.90;;;;;;5108529;28;20043;-76
2022/02/12 13:03:06;;;;;;;10.13;4.43;;;6.90;69.80;;;;;;5107152;28;20108;-76
2022/02/12 13:05:32;;;;;;;11.27;3.88;;;6.80;70.10;;;;;;5107724;28;20032;-75
2022/02/12 13:08:07;;;;;;;12.93;3.95;;;6.70;70.30;;;;;;5107539;28;20440;-75
2022/02/12 13:10:34;;;;;;;16.17;5.10;;;6.70;70.40;;;;;;5107426;28;20066;-75
2022/02/12 13:13:15;;;;;;;8.93;4.35;;;6.70;69.90;;;;;;5098621;28;20493;-76
2022/02/12 13:15:43;;;;;;;11.02;4.10;;;6.70;70.80;;;;;;5093693;28;20082;-75
2022/02/12 13:18:09;;;;;;;16.58;4.88;;;6.70;71.30;;;;;;5093502;28;20055;-75
2022/02/12 13:20:36;;;;;;;8.88;4.05;;;6.60;70.50;;;;;;5093530;28;20160;-76
2022/02/12 13:23:07;;;;;;;12.88;5.18;;;6.60;71.30;;;;;;5093232;28;20055;-75
2022/02/12 13:25:38;;;;;;;16.40;5.10;;;6.60;70.50;;;;;;5093461;28;20166;-76
2022/02/12 13:28:05;;;;;;;9.10;4.07;;;6.60;69.90;;;;;;5093415;28;20046;-75
2022/02/12 13:30:34;;;;;;;12.25;4.30;;;6.60;69.70;;;;;;5093066;28;20056;-75
2022/02/12 13:33:04;;;;;;;14.75;5.13;;;6.60;69.30;;;;;;5092826;28;20050;-75
2022/02/12 13:35:35;;;;;;;12.00;3.95;;;6.70;70.50;;;;;;5093206;28;20078;-75
2022/02/12 13:38:01;;;;;;;9.18;4.53;;;6.60;70.50;;;;;;5093126;28;20039;-75
2022/02/12 13:40:36;;;;;;;8.82;4.20;;;6.60;70.90;;;;;;5093084;28;20035;-75
2022/02/12 13:43:11;;;;;;;13.38;5.65;;;6.70;72.30;;;;;;5093068;28;20058;-75
2022/02/12 13:45:40;;;;;;;16.98;6.78;;;6.70;73.40;;;;;;5093008;28;20466;-76
2022/02/12 13:48:10;;;;;;;22.73;10.38;;;6.70;73.20;;;;;;5092944;28;20212;-75
2022/02/12 13:50:41;;;;;;;18.75;10.90;;;6.70;72.00;;;;;;5094201;28;20043;-74
2022/02/12 13:53:16;;;;;;;13.30;5.95;;;6.70;72.20;;;;;;5092657;28;20504;-75
2022/02/12 13:55:46;;;;;;;13.95;4.93;;;6.70;72.40;;;;;;5094046;28;20036;-75
2022/02/12 13:58:12;;;;;;;10.60;4.45;;;6.70;72.60;;;;;;5092728;28;20059;-76
2022/02/12 14:00:39;;;;;;;12.13;4.22;;;6.70;73.20;;;;;;5075580;28;20071;-76
2022/02/12 14:03:05;;;;;;;10.95;4.35;;;6.70;73.60;;;;;;5092481;28;20089;-75
2022/02/12 14:05:31;;;;;;;10.68;3.90;;;6.70;72.90;;;;;;5092706;28;20195;-75
2022/02/12 14:07:58;;;;;;;10.85;4.15;;;6.70;71.80;;;;;;5092523;28;20119;-75
2022/02/12 14:10:26;;;;;;;10.85;5.03;;;6.70;72.10;;;;;;5092310;28;20036;-75
2022/02/12 14:12:57;;;;;;;15.75;5.13;;;6.70;72.60;;;;;;5092154;28;20063;-75
2022/02/12 14:15:23;;;;;;;9.63;4.28;;;6.70;73.40;;;;;;5092582;28;20040;-75
2022/02/12 14:17:49;;;;;;;12.02;4.28;;;6.70;73.40;;;;;;5075525;28;20051;-72
2022/02/12 14:20:15;;;;;;;13.88;4.72;;;6.80;72.80;;;;;;5092319;28;20032;-73
2022/02/12 14:22:44;;;;;;;13.75;4.80;;;7.20;73.30;;;;;;5091964;28;20036;-72
2022/02/12 14:25:10;;;;;;;8.73;3.80;;;7.20;71.40;;;;;;5097667;28;20119;-72
2022/02/12 14:27:35;;;;;;;9.93;4.28;;;7.40;69.90;;;;;;5101002;28;20074;-72
2022/02/12 14:30:01;;;;;;;11.27;3.67;;;7.40;69.50;;;;;;5103697;28;20038;-72
2022/02/12 14:32:27;;;;;;;8.43;4.07;;;7.40;69.20;;;;;;5103015;28;20032;-73
2022/02/12 14:34:52;;;;;;;11.00;3.72;;;7.50;69.10;;;;;;5101297;28;20036;-72
2022/02/12 14:37:19;;;;;;;8.57;3.72;;;7.60;69.50;;;;;;5103974;28;20068;-73
2022/02/12 14:39:46;;;;;;;16.90;3.70;;;7.70;69.00;;;;;;5102947;28;20032;-75
2022/02/12 14:42:12;;;;;;;8.95;3.22;;;7.60;69.50;;;;;;5100037;28;21388;-72
2022/02/12 14:44:40;;;;;;;8.93;3.80;;;7.60;69.50;;;;;;5104238;28;20043;-72
2022/02/12 14:47:06;;;;;;;11.45;3.30;;;7.60;68.60;;;;;;5109503;28;20046;-72
2022/02/12 14:49:31;;;;;;;12.82;3.70;;;7.60;66.70;;;;;;5103839;28;20036;-73
2022/02/12 14:51:57;;;;;;;8.88;3.25;;;7.70;65.80;;;;;;5099794;28;20038;-73
2022/02/12 14:54:23;;;;;;;12.52;4.55;;;7.60;66.30;;;;;;5094697;28;20451;-73
2022/02/12 14:56:48;;;;;;;8.50;3.15;;;7.60;66.50;;;;;;5091531;28;20044;-73
2022/02/12 14:59:14;;;;;;;6.90;3.40;;;7.60;66.00;;;;;;5092639;28;20394;-72
2022/02/12 15:01:40;;;;;;;8.88;2.95;;;7.60;66.80;;;;;;5090907;28;20505;-73
2022/02/12 15:04:05;;;;;;;11.00;3.50;;;7.60;66.80;;;;;;5091622;28;20112;-72
2022/02/12 15:06:31;;;;;;;8.65;3.22;;;7.60;66.50;;;;;;5092729;28;20489;-73
2022/02/12 15:08:56;;;;;;;8.43;3.90;;;7.60;66.50;;;;;;5093667;28;20032;-73
2022/02/12 15:11:22;;;;;;;12.30;4.30;;;7.50;67.50;;;;;;5103102;22;20076;-72
2022/02/12 15:13:48;;;;;;;9.45;3.35;;;7.50;66.90;;;;;;5052486;28;20094;-72
2022/02/12 15:16:13;;;;;;;15.15;3.85;;;7.30;66.70;;;;;;5052314;28;20037;-72
2022/02/12 15:18:39;;;;;;;12.40;4.05;;;7.40;65.50;;;;;;5052311;28;20094;-72
2022/02/12 15:21:05;;;;;;;12.45;3.13;;;7.30;64.80;;;;;;5051681;28;20041;-72
2022/02/12 15:23:31;;;;;;;7.40;3.20;;;7.10;64.80;;;;;;5034145;28;20452;-72
2022/02/12 15:25:57;;;;;;;7.45;3.38;;;7.10;64.80;;;;;;5034015;28;20041;-72
2022/02/12 15:28:23;;;;;;;10.63;3.03;;;7.00;65.90;;;;;;5034012;28;20090;-72
2022/02/12 15:30:48;;;;;;;7.78;3.50;;;6.90;66.40;;;;;;5051789;28;20128;-73
2022/02/12 15:33:15;;;;;;;8.40;3.10;;;6.90;67.40;;;;;;5051986;28;20179;-71
2022/02/12 15:35:41;;;;;;;9.15;3.88;;;6.80;68.00;;;;;;5051678;28;20048;-71
2022/02/12 15:38:06;;;;;;;8.93;3.30;;;6.80;67.80;;;;;;5051714;28;20052;-71
2022/02/12 15:40:32;;;;;;;10.00;3.88;;;6.70;67.70;;;;;;5034123;28;20045;-72
2022/02/12 15:42:58;;;;;;;8.93;3.90;;;6.60;68.50;;;;;;5033729;28;20041;-72
2022/02/12 15:45:25;;;;;;;9.20;4.03;;;6.40;68.80;;;;;;5034265;28;20087;-72
2022/02/12 15:47:56;;;;;;;10.38;3.33;;;6.40;67.90;;;;;;5051746;28;20509;-72
2022/02/12 15:50:21;;;;;;;9.20;4.60;;;6.30;68.70;;;;;;5033895;28;20072;-72
2022/02/12 15:52:47;;;;;;;8.95;3.38;;;6.30;69.30;;;;;;5033584;28;20485;-72
2022/02/12 15:55:12;;;;;;;6.78;3.40;;;6.20;69.70;;;;;;5051837;28;20041;-72
2022/02/12 15:57:38;;;;;;;8.55;3.30;;;6.10;69.50;;;;;;5034142;28;20033;-72
2022/02/12 16:00:05;;;;;;;13.27;3.67;;;6.10;69.60;;;;;;5052125;28;20127;-72
2022/02/12 16:02:31;;;;;;;7.78;3.78;;;6.10;69.50;;;;;;5033386;28;20047;-71
2022/02/12 16:04:56;;;;;;;10.65;3.35;;;6.00;70.50;;;;;;5051416;28;20037;-71
2022/02/12 16:07:22;;;;;;;8.98;3.50;;;6.00;70.90;;;;;;5051794;28;20049;-71
2022/02/12 16:09:48;;;;;;;12.32;3.97;;;6.00;70.90;;;;;;5051577;28;20041;-71
2022/02/12 16:12:13;;;;;;;8.32;3.65;;;6.00;70.90;;;;;;5051096;28;20033;-71
2022/02/12 16:14:39;;;;;;;9.13;3.83;;;6.00;71.50;;;;;;5051555;28;20094;-71
2022/02/12 16:17:04;;;;;;;9.27;4.35;;;6.10;71.90;;;;;;5051557;28;20047;-70
2022/02/12 16:19:32;;;;;;;11.82;3.80;;;6.00;72.10;;;;;;5051405;28;20044;-70
2022/02/12 16:21:58;;;;;;;6.13;3.15;;;6.00;71.80;;;;;;5050950;28;20493;-70
2022/02/12 16:24:24;;;;;;;9.45;3.97;;;5.90;71.20;;;;;;5051615;28;20045;-70
2022/02/12 16:26:49;;;;;;;7.68;3.28;;;5.90;71.20;;;;;;5051371;28;20044;-70
2022/02/12 16:29:15;;;;;;;9.95;4.07;;;5.80;71.20;;;;;;5033722;28;20083;-70
2022/02/12 16:31:41;;;;;;;10.18;4.03;;;5.80;71.20;;;;;;5051006;28;20466;-73
2022/02/12 16:34:07;;;;;;;10.70;4.63;;;5.70;71.30;;;;;;5051331;28;20091;-70
2022/02/12 16:36:35;;;;;;;13.90;4.70;;;5.70;71.50;;;;;;5033648;28;20044;-70
2022/02/12 16:39:03;;;;;;;8.05;3.58;;;5.60;71.70;;;;;;5033630;28;20557;-71
2022/02/12 16:41:28;;;;;;;7.55;3.58;;;5.60;72.00;;;;;;5051109;28;20047;-70
2022/02/12 16:43:54;;;;;;;10.75;3.83;;;5.60;71.90;;;;;;5051349;28;20045;-71
2022/02/12 16:46:20;;;;;;;10.95;4.22;;;5.50;71.90;;;;;;5051324;28;20033;-70
2022/02/12 16:48:46;;;;;;;12.85;4.38;;;5.50;72.20;;;;;;5053800;28;20116;-71
2022/02/12 16:51:12;;;;;;;11.13;4.78;;;5.50;72.20;;;;;;5054873;28;20041;-72
2022/02/12 16:53:37;;;;;;;9.82;4.07;;;5.50;72.00;;;;;;5054508;28;20095;-70
2022/02/12 16:56:03;;;;;;;10.30;4.13;;;5.40;72.20;;;;;;5054909;28;20143;-70
2022/02/12 16:58:29;;;;;;;9.93;4.93;;;5.40;72.80;;;;;;5053110;28;20043;-70
2022/02/12 17:00:55;;;;;;;9.55;4.65;;;5.30;73.10;;;;;;5054580;28;20429;-70
2022/02/12 17:03:20;;;;;;;21.95;4.95;;;5.20;73.60;;;;;;5054697;28;20032;-70
2022/02/12 17:05:46;;;;;;;15.82;5.68;;;5.20;73.70;;;;;;5054683;28;20029;-70
2022/02/12 17:08:11;;;;;;;12.07;4.53;;;5.20;73.90;;;;;;5054706;28;20041;-70
2022/02/12 17:10:37;;;;;;;11.27;4.28;;;5.10;73.60;;;;;;5054571;28;20044;-70
2022/02/12 17:13:03;;;;;;;14.13;5.10;;;5.10;73.30;;;;;;5036136;28;20033;-69
2022/02/12 17:15:29;;;;;;;10.40;5.07;;;5.10;73.10;;;;;;5053746;28;20437;-70
2022/02/12 17:17:54;;;;;;;9.45;4.68;;;5.10;73.40;;;;;;5052617;28;20037;-70
2022/02/12 17:20:22;;;;;;;8.15;4.13;;;5.10;73.50;;;;;;5034341;28;20040;-70
2022/02/12 17:22:48;;;;;;;14.13;4.70;;;5.00;73.80;;;;;;5054329;28;20033;-70
2022/02/12 17:25:13;;;;;;;6.57;4.20;;;5.00;74.60;;;;;;5054022;28;20043;-70
2022/02/12 17:27:39;;;;;;;12.52;5.55;;;5.00;74.10;;;;;;5054032;28;20189;-70
2022/02/12 17:30:05;;;;;;;13.30;4.35;;;5.00;74.30;;;;;;5054406;28;20098;-71
2022/02/12 17:32:30;;;;;;;10.95;4.80;;;4.90;74.40;;;;;;5035872;28;20522;-70
2022/02/12 17:34:58;;;;;;;11.38;4.35;;;4.90;74.10;;;;;;5036583;28;20079;-69
2022/02/12 17:37:24;;;;;;;10.10;4.90;;;4.90;74.60;;;;;;5036129;28;20569;-69
2022/02/12 17:39:50;;;;;;;12.35;4.80;;;4.70;74.90;;;;;;5053965;28;20072;-69
2022/02/12 17:42:16;;;;;;;11.30;5.10;;;4.80;74.80;;;;;;5053829;28;20077;-72
2022/02/12 17:44:50;;;;;;;16.85;5.05;;;4.80;74.60;;;;;;5036426;28;20045;-70
2022/02/12 17:47:16;;;;;;;9.68;4.07;;;4.80;74.80;;;;;;5054076;28;20044;-70
2022/02/12 17:49:42;;;;;;;12.68;5.72;;;4.70;75.20;;;;;;5053841;28;20533;-70
2022/02/12 17:52:07;;;;;;;10.25;4.85;;;4.60;75.10;;;;;;5052886;28;20072;-70
2022/02/12 17:54:35;;;;;;;11.82;5.10;;;4.50;75.90;;;;;;5054009;28;20045;-70
2022/02/12 17:57:01;;;;;;;9.85;4.63;;;4.50;76.50;;;;;;5053755;28;20525;-70
2022/02/12 17:59:27;;;;;;;12.25;5.15;;;4.60;76.50;;;;;;5053760;28;20085;-70
2022/02/12 18:01:53;;;;;;;14.55;5.22;;;4.60;76.20;;;;;;5053267;28;20421;-70
2022/02/12 18:04:18;;;;;;;20.95;5.63;;;4.60;76.20;;;;;;5035807;28;20033;-70
2022/02/12 18:06:44;;;;;;;9.55;4.22;;;4.60;76.20;;;;;;5053491;28;20441;-70
2022/02/12 18:11:55;;;;;;;13.85;5.10;;;4.60;75.80;;;;;;5035239;28;20131;-70
2022/02/12 18:14:20;;;;;;;13.88;4.35;;;4.50;76.30;;;;;;5053485;28;20121;-70
2022/02/12 18:16:46;;;;;;;14.93;4.78;;;4.60;75.90;;;;;;5053400;28;20045;-70
2022/02/12 18:19:11;;;;;;;7.80;4.30;;;4.60;76.00;;;;;;5053209;28;20399;-70
2022/02/12 18:21:37;;;;;;;15.23;4.68;;;4.50;75.60;;;;;;5052789;28;20049;-71
2022/02/12 18:24:03;;;;;;;9.32;4.35;;;4.50;75.50;;;;;;5052145;28;20036;-70
2022/02/12 18:26:28;;;;;;;9.93;4.47;;;4.60;75.50;;;;;;5050315;28;20052;-71
2022/02/12 18:28:54;;;;;;;13.23;4.07;;;4.50;75.70;;;;;;5052949;28;20036;-70
2022/02/12 18:31:22;;;;;;;8.65;3.95;;;4.50;75.50;;;;;;5052391;28;20040;-70
2022/02/12 18:33:49;;;;;;;16.98;5.38;;;4.50;75.50;;;;;;5031126;28;20056;-70
2022/02/12 18:36:16;;;;;;;13.02;6.35;;;4.50;75.60;;;;;;5052793;28;20076;-69
2022/02/12 18:38:41;;;;;;;13.63;6.63;;;4.50;75.80;;;;;;5052760;28;20040;-70
2022/02/12 18:41:08;;;;;;;10.90;4.35;;;4.50;76.10;;;;;;5052547;28;20122;-69
2022/02/12 18:43:35;;;;;;;12.88;5.55;;;4.50;76.10;;;;;;5052637;28;20037;-69
2022/02/12 18:46:02;;;;;;;10.93;4.25;;;4.50;76.50;;;;;;5052535;28;20037;-69
2022/02/12 18:48:28;;;;;;;10.10;4.45;;;4.50;76.70;;;;;;5052545;28;20044;-70
2022/02/12 18:50:54;;;;;;;12.18;5.00;;;4.60;77.20;;;;;;5052428;28;20037;-70
2022/02/12 18:53:20;;;;;;;14.27;5.07;;;4.60;77.20;;;;;;5052307;28;20047;-70
2022/02/12 18:55:45;;;;;;;10.27;4.40;;;4.50;77.50;;;;;;5052478;28;20114;-70
2022/02/12 18:58:11;;;;;;;9.65;4.13;;;4.50;78.10;;;;;;5052366;28;20419;-70
2022/02/12 19:00:37;;;;;;;9.85;5.32;;;4.50;78.00;;;;;;5051873;28;20041;-70
2022/02/12 19:03:04;;;;;;;9.18;4.75;;;4.40;78.30;;;;;;5052135;28;20036;-70
2022/02/12 19:05:29;;;;;;;10.15;5.63;;;4.40;78.50;;;;;;5052234;28;20479;-70
2022/02/12 19:07:55;;;;;;;9.50;5.47;;;4.40;78.70;;;;;;5034322;28;20047;-70
2022/02/12 19:10:21;;;;;;;15.13;4.85;;;4.40;79.00;;;;;;5051498;28;20029;-70
2022/02/12 19:12:47;;;;;;;10.95;4.70;;;4.40;78.60;;;;;;5033891;28;20130;-70
2022/02/12 19:15:13;;;;;;;11.82;4.93;;;4.40;78.70;;;;;;5034222;28;20055;-70
2022/02/12 19:17:40;;;;;;;12.73;5.90;;;4.40;78.50;;;;;;5052225;28;20413;-69
2022/02/12 19:20:07;;;;;;;8.85;4.65;;;4.30;79.00;;;;;;5034074;28;20083;-68
2022/02/12 19:22:34;;;;;;;14.50;6.22;;;4.40;79.20;;;;;;5051615;28;20033;-68
2022/02/12 19:25:00;;;;;;;17.08;5.57;;;4.30;79.00;;;;;;5051928;28;20033;-69
2022/02/12 19:27:25;;;;;;;12.10;5.18;;;4.30;79.80;;;;;;5051857;28;20402;-69
2022/02/12 19:29:51;;;;;;;12.85;5.50;;;4.30;80.10;;;;;;5051642;28;20051;-70
2022/02/12 19:32:17;;;;;;;12.70;5.38;;;4.30;79.90;;;;;;5051467;28;20040;-70
2022/02/12 19:34:44;;;;;;;12.38;5.22;;;4.30;80.20;;;;;;5034240;28;20049;-68
2022/02/12 19:37:09;;;;;;;10.98;5.20;;;4.20;80.40;;;;;;5051729;28;20040;-67
2022/02/12 19:39:36;;;;;;;8.63;4.75;;;4.20;81.10;;;;;;5051615;28;20048;-68
2022/02/12 19:42:06;;;;;;;11.05;4.53;;;4.20;81.20;;;;;;5051351;28;20112;-71
2022/02/12 19:44:34;;;;;;;9.90;4.22;;;4.20;80.60;;;;;;5051430;28;20043;-71
2022/02/12 19:47:03;;;;;;;13.93;5.32;;;4.10;81.20;;;;;;5049758;28;20029;-71
2022/02/12 19:49:30;;;;;;;9.63;4.80;;;4.00;81.20;;;;;;5031870;28;20398;-71
2022/02/12 19:51:55;;;;;;;11.15;4.88;;;4.00;81.70;;;;;;5050432;28;20037;-71
2022/02/12 19:54:21;;;;;;;13.65;4.75;;;4.00;82.30;;;;;;5051778;28;20047;-71
2022/02/12 19:56:46;;;;;;;13.05;4.80;;;3.90;82.80;;;;;;5034030;28;20045;-71
2022/02/12 19:59:14;;;;;;;12.82;5.13;;;4.00;82.40;;;;;;5034075;28;20482;-71
2022/02/12 20:01:40;;;;;;;11.48;4.88;;;4.00;82.40;;;;;;5051204;28;20041;-71
2022/02/12 20:04:06;;;;;;;11.77;5.18;;;4.00;82.70;;;;;;5051723;28;20078;-71
2022/02/12 20:06:31;;;;;;;6.93;4.35;;;4.00;83.00;;;;;;5051765;28;20119;-70
2022/02/12 20:08:57;;;;;;;13.07;5.40;;;4.00;82.90;;;;;;5051620;28;20421;-71
2022/02/12 20:11:23;;;;;;;9.32;4.57;;;3.90;83.00;;;;;;5051070;28;20041;-71
2022/02/12 20:13:49;;;;;;;11.52;5.03;;;4.00;82.60;;;;;;5051319;28;20037;-71
2022/02/12 20:16:15;;;;;;;12.05;5.20;;;4.00;82.50;;;;;;5033718;28;20044;-71
2022/02/12 20:18:42;;;;;;;7.13;4.55;;;4.00;82.20;;;;;;5051596;28;20069;-71
2022/02/12 20:21:08;;;;;;;18.77;5.43;;;4.00;82.60;;;;;;5051195;28;20037;-71
2022/02/12 20:23:34;;;;;;;8.73;4.97;;;4.00;82.30;;;;;;5053875;28;20043;-71
2022/02/12 20:26:00;;;;;;;9.55;4.40;;;4.00;82.30;;;;;;5055628;28;20075;-70
2022/02/12 20:28:26;;;;;;;7.90;3.90;;;4.00;82.70;;;;;;5055915;28;20036;-71
2022/02/12 20:30:51;;;;;;;10.75;4.85;;;4.00;82.80;;;;;;5055426;28;20457;-71
2022/02/12 20:33:17;;;;;;;10.15;4.75;;;4.00;83.10;;;;;;5055371;28;20032;-71
2022/02/12 20:35:43;;;;;;;10.98;4.63;;;4.00;82.90;;;;;;5055359;28;20028;-71
2022/02/12 20:38:09;;;;;;;13.98;4.78;;;3.90;83.00;;;;;;5038016;28;20545;-71
2022/02/12 20:40:36;;;;;;;10.05;4.35;;;3.80;83.70;;;;;;5054980;28;20078;-71
2022/02/12 20:43:02;;;;;;;10.02;5.07;;;3.80;84.40;;;;;;5036718;28;20060;-72
2022/02/12 20:45:28;;;;;;;8.73;4.70;;;3.80;84.80;;;;;;5037146;28;20090;-72
2022/02/12 20:47:53;;;;;;;11.43;5.00;;;3.80;85.00;;;;;;5036950;28;20096;-72
2022/02/12 20:50:19;;;;;;;7.57;4.18;;;3.80;85.00;;;;;;5037121;28;20040;-72
2022/02/12 20:52:45;;;;;;;16.42;5.72;;;3.80;84.80;;;;;;5036733;28;20044;-72
2022/02/12 20:55:11;;;;;;;8.52;4.28;;;3.80;84.90;;;;;;5036963;28;20044;-72
2022/02/12 20:57:37;;;;;;;8.50;3.72;;;3.80;85.40;;;;;;5020685;28;20406;-72
2022/02/12 21:00:08;;;;;;;8.23;4.82;;;3.80;85.80;;;;;;5036852;28;20033;-71
2022/02/12 21:02:35;;;;;;;12.60;4.82;;;3.80;86.30;;;;;;5019846;28;20045;-71
2022/02/12 21:05:04;;;;;;;12.75;5.32;;;3.70;86.70;;;;;;5054615;28;20076;-72
2022/02/12 21:07:31;;;;;;;12.05;5.03;;;3.70;86.90;;;;;;5036790;28;20406;-71
2022/02/12 21:09:57;;;;;;;11.63;5.28;;;3.70;86.30;;;;;;5054453;28;20627;-72
2022/02/12 21:12:23;;;;;;;10.13;5.03;;;3.70;86.20;;;;;;5086485;23;20055;-69
2022/02/12 21:14:48;;;;;;;13.23;4.80;;;3.70;86.20;;;;;;5073080;28;20420;-71
2022/02/12 21:17:14;;;;;;;9.00;4.68;;;3.70;85.80;;;;;;5062915;28;20508;-69
2022/02/12 21:19:39;;;;;;;11.55;4.57;;;3.60;86.20;;;;;;5070913;28;20032;-69
2022/02/12 21:22:07;;;;;;;9.60;4.63;;;3.70;86.80;;;;;;5071513;28;20052;-68
2022/02/12 21:24:34;;;;;;;12.00;4.88;;;3.60;86.30;;;;;;5067079;28;20036;-69
2022/02/12 21:27:00;;;;;;;10.50;4.25;;;3.60;86.30;;;;;;5072345;28;20044;-71
2022/02/12 21:29:25;;;;;;;12.23;4.55;;;3.60;86.30;;;;;;5074464;28;20452;-71
2022/02/12 21:31:51;;;;;;;8.52;4.30;;;3.70;86.20;;;;;;5072885;28;20116;-69
2022/02/12 21:34:17;;;;;;;11.38;4.55;;;3.70;85.50;;;;;;5073624;28;20041;-69
2022/02/12 21:36:44;;;;;;;8.25;4.68;;;3.70;85.30;;;;;;5072562;28;20036;-69
2022/02/12 21:39:11;;;;;;;10.60;4.40;;;3.70;84.90;;;;;;5073009;28;20032;-68
2022/02/12 21:41:37;;;;;;;9.98;5.10;;;3.60;85.00;;;;;;5073569;28;20080;-69
2022/02/12 21:44:03;;;;;;;11.90;6.07;;;3.60;85.80;;;;;;5074077;28;20041;-69
2022/02/12 21:46:28;;;;;;;9.20;4.88;;;3.60;85.00;;;;;;5074055;28;20516;-71
2022/02/12 21:48:54;;;;;;;8.95;4.70;;;3.60;84.80;;;;;;5072873;28;20049;-69
2022/02/12 21:51:19;;;;;;;9.45;4.80;;;3.60;85.70;;;;;;5073857;28;20036;-69
2022/02/12 21:53:45;;;;;;;11.02;5.07;;;3.70;85.50;;;;;;5074031;28;20051;-68
2022/02/12 21:56:11;;;;;;;12.23;4.78;;;3.60;85.40;;;;;;5072718;28;20037;-69
2022/02/12 21:58:36;;;;;;;10.20;5.53;;;3.60;85.80;;;;;;5073767;28;20505;-69
2022/02/12 22:01:05;;;;;;;14.63;6.82;;;3.50;86.50;;;;;;5073300;28;20406;-69
2022/02/12 22:03:31;;;;;;;8.52;5.10;;;3.50;86.90;;;;;;5055582;28;20037;-69
2022/02/12 22:05:57;;;;;;;9.38;4.68;;;3.50;86.70;;;;;;5073581;28;20059;-68
2022/02/12 22:08:22;;;;;;;10.93;5.43;;;3.50;87.00;;;;;;5072243;28;20198;-68
2022/02/12 22:10:48;;;;;;;13.43;5.30;;;3.50;86.90;;;;;;5073426;28;20033;-69
2022/02/12 22:13:14;;;;;;;15.02;6.35;;;3.50;87.50;;;;;;5073142;28;20341;-69
2022/02/12 22:15:42;;;;;;;10.13;5.93;;;3.50;87.40;;;;;;5073357;28;20044;-69
2022/02/12 22:18:11;;;;;;;12.95;5.57;;;3.50;87.50;;;;;;5055651;28;20044;-69
2022/02/12 22:20:38;;;;;;;7.75;4.72;;;3.50;87.40;;;;;;5073067;28;20444;-69
2022/02/12 22:23:04;;;;;;;9.35;5.13;;;3.40;87.00;;;;;;5072927;28;20498;-69
2022/02/12 22:25:30;;;;;;;11.07;5.63;;;3.50;86.60;;;;;;5073204;28;20032;-69
2022/02/12 22:27:55;;;;;;;9.25;4.95;;;3.50;86.90;;;;;;5073410;28;20028;-69
2022/02/12 22:30:23;;;;;;;10.07;5.53;;;3.50;87.40;;;;;;5073077;28;20032;-69
2022/02/12 22:32:48;;;;;;;11.10;5.68;;;3.50;87.60;;;;;;5054638;28;20032;-69
2022/02/12 22:35:14;;;;;;;11.32;5.75;;;3.50;87.30;;;;;;5071668;28;20417;-69
2022/02/12 22:37:40;;;;;;;14.23;5.35;;;3.60;86.90;;;;;;5073117;28;20043;-69
2022/02/12 22:40:06;;;;;;;9.13;5.18;;;3.60;86.90;;;;;;5071495;28;20390;-69
2022/02/12 22:42:32;;;;;;;10.40;5.20;;;3.60;86.90;;;;;;5054303;28;20045;-69
2022/02/12 22:44:57;;;;;;;12.77;6.25;;;3.60;87.40;;;;;;5070759;28;20044;-69
2022/02/12 22:47:23;;;;;;;8.05;4.88;;;3.60;87.80;;;;;;5071265;28;20521;-69
2022/02/12 22:49:48;;;;;;;11.02;5.97;;;3.60;87.20;;;;;;5071394;28;20041;-69
2022/02/12 22:52:14;;;;;;;11.82;5.75;;;3.60;87.20;;;;;;5072484;28;20052;-69
2022/02/12 22:54:40;;;;;;;13.63;5.93;;;3.50;87.70;;;;;;5072544;28;20557;-69
2022/02/12 22:57:07;;;;;;;11.95;5.18;;;3.40;88.10;;;;;;5071187;28;20183;-69
2022/02/12 22:59:32;;;;;;;9.55;4.60;;;3.50;88.30;;;;;;5072520;28;20041;-69
2022/02/12 23:01:58;;;;;;;10.98;5.70;;;3.40;88.80;;;;;;5070660;28;20387;-69
2022/02/12 23:04:23;;;;;;;8.25;4.95;;;3.30;88.80;;;;;;5071391;28;20024;-69
2022/02/12 23:06:49;;;;;;;9.73;5.20;;;3.30;88.60;;;;;;5054402;28;20093;-69
2022/02/12 23:09:16;;;;;;;10.15;4.82;;;3.20;89.10;;;;;;5072381;28;20037;-69
2022/02/12 23:11:45;;;;;;;8.68;5.22;;;3.20;89.50;;;;;;5054071;28;20045;-69
2022/02/12 23:14:11;;;;;;;8.88;5.00;;;3.20;89.30;;;;;;5070930;28;20045;-69
2022/02/12 23:16:40;;;;;;;8.82;5.05;;;3.20;89.70;;;;;;5072056;28;20071;-69
2022/02/12 23:19:06;;;;;;;13.20;5.60;;;3.20;89.10;;;;;;5070902;28;20036;-69
2022/02/12 23:21:33;;;;;;;9.50;5.35;;;3.30;88.90;;;;;;5071821;28;20051;-69
2022/02/12 23:24:00;;;;;;;10.18;5.05;;;3.30;88.30;;;;;;5072167;28;20033;-69
2022/02/12 23:26:26;;;;;;;15.55;5.95;;;3.20;87.70;;;;;;5070751;28;20048;-69